Time;durP1;ratioP1;P1;durP2;ratioP2;P2;SDS_P1;SDS_P2;PMS_P1;PMS_P2;Temp;Humidity;BMP_temperature;BMP_pressure;BME280_temperature;BME280_humidity;BME280_pressure;Samples;Min_cycle;Max_cycle;Signal;HPM_P1;HPM_P2
2023/01/12 00:01:40;;;;;;;16.80;10.97;;;;;;;;;;4926564;29;20194;-62
2023/01/12 00:04:07;;;;;;;14.73;9.37;;;;;;;;;;4933920;29;20194;-62
2023/01/12 00:06:33;;;;;;;13.83;9.67;;;;;;;;;;4916813;29;20661;-62
2023/01/12 00:09:01;;;;;;;15.27;9.57;;;;;;;;;;4933677;29;20175;-62
2023/01/12 00:11:28;;;;;;;15.40;9.53;;;;;;;;;;4933441;29;20218;-62
2023/01/12 00:13:55;;;;;;;14.73;8.70;;;;;;;;;;4933591;29;20277;-62
2023/01/12 00:16:33;;;;;;;13.80;9.30;;;;;;;;;;4916875;29;20559;-62
2023/01/12 00:19:00;;;;;;;12.77;7.77;;;;;;;;;;4933501;29;20198;-62
2023/01/12 00:21:27;;;;;;;15.13;9.10;;;;;;;;;;4933175;29;20205;-62
2023/01/12 00:23:54;;;;;;;12.33;8.17;;;;;;;;;;4932380;29;20222;-62
2023/01/12 00:26:38;;;;;;;13.27;7.70;;;;;;;;;;4933063;29;20301;-62
2023/01/12 00:29:05;;;;;;;13.10;8.73;;;;;;;;;;4932786;29;20282;-62
2023/01/12 00:31:32;;;;;;;14.40;9.23;;;;;;;;;;4933596;29;20219;-62
2023/01/12 00:33:58;;;;;;;15.70;9.53;;;;;;;;;;4933101;29;20194;-62
2023/01/12 00:36:25;;;;;;;16.17;9.17;;;;;;;;;;4933083;29;20682;-62
2023/01/12 00:39:09;;;;;;;13.53;7.93;;;;;;;;;;4933159;29;20240;-62
2023/01/12 00:47:07;;;;;;;19.60;10.17;;;;;;;;;;4931643;29;20222;-62
2023/01/12 00:49:34;;;;;;;21.00;10.40;;;;;;;;;;4933283;29;20262;-62
2023/01/12 00:52:01;;;;;;;18.30;11.23;;;;;;;;;;4932793;29;20218;-62
2023/01/12 00:54:27;;;;;;;19.10;10.90;;;;;;;;;;4932986;29;20238;-62
2023/01/12 00:56:54;;;;;;;18.60;10.77;;;;;;;;;;4932546;29;20574;-62
2023/01/12 00:59:21;;;;;;;18.93;11.77;;;;;;;;;;4932898;29;20198;-61
2023/01/12 01:01:48;;;;;;;20.10;11.20;;;;;;;;;;4932638;29;20261;-61
2023/01/12 01:04:14;;;;;;;19.63;11.17;;;;;;;;;;4932052;29;20194;-62
2023/01/12 01:06:41;;;;;;;19.77;11.47;;;;;;;;;;4932793;29;20195;-62
2023/01/12 01:09:08;;;;;;;21.30;11.70;;;;;;;;;;4932627;29;20191;-61
2023/01/12 01:11:34;;;;;;;17.43;11.03;;;;;;;;;;4932772;29;20229;-61
2023/01/12 01:14:01;;;;;;;18.53;11.53;;;;;;;;;;4932532;29;20268;-61
2023/01/12 01:16:28;;;;;;;21.00;12.03;;;;;;;;;;4931871;29;20191;-61
2023/01/12 01:19:13;;;;;;;20.63;11.83;;;;;;;;;;4932881;29;20182;-61
2023/01/12 01:21:39;;;;;;;21.83;10.70;;;;;;;;;;4932505;29;20246;-61
2023/01/12 01:24:23;;;;;;;20.50;10.73;;;;;;;;;;4931361;29;20257;-61
2023/01/12 01:26:50;;;;;;;20.67;11.53;;;;;;;;;;4915316;29;20234;-62
2023/01/12 01:29:17;;;;;;;20.60;11.30;;;;;;;;;;4932535;29;20528;-61
2023/01/12 01:31:46;;;;;;;24.57;12.17;;;;;;;;;;4932192;29;20250;-62
2023/01/12 01:34:13;;;;;;;20.43;12.40;;;;;;;;;;4932971;29;20195;-62
2023/01/12 01:36:40;;;;;;;18.50;11.33;;;;;;;;;;4932421;29;20191;-61
2023/01/12 01:39:06;;;;;;;19.47;10.87;;;;;;;;;;4932076;29;20287;-61
2023/01/12 01:41:33;;;;;;;19.37;11.17;;;;;;;;;;4933280;29;20197;-62
2023/01/12 02:18:46;;;;;;;21.33;8.97;;;;;;;;;;4935490;29;20182;-62
2023/01/12 02:21:31;;;;;;;18.93;9.80;;;;;;;;;;4934579;29;20726;-62
2023/01/12 02:24:06;;;;;;;19.77;8.47;;;;;;;;;;4935623;29;20191;-62
2023/01/12 02:26:45;;;;;;;15.27;7.17;;;;;;;;;;4934088;29;20737;-62
2023/01/12 02:29:28;;;;;;;23.43;9.50;;;;;;;;;;4935554;29;20271;-62
2023/01/12 02:32:11;;;;;;;20.80;9.07;;;;;;;;;;4934165;29;20238;-61
2023/01/12 02:34:47;;;;;;;22.73;10.00;;;;;;;;;;4936116;29;20222;-61
2023/01/12 02:37:51;;;;;;;16.50;8.00;;;;;;;;;;4935584;29;20183;-61
2023/01/12 02:40:20;;;;;;;17.43;9.70;;;;;;;;;;4922849;29;20211;-62
2023/01/12 02:42:53;;;;;;;18.10;8.73;;;;;;;;;;4935067;29;20218;-62
2023/01/12 02:45:30;;;;;;;21.30;9.40;;;;;;;;;;4933941;29;20275;-62
2023/01/12 02:48:02;;;;;;;19.50;9.43;;;;;;;;;;4933844;29;20197;-62
2023/01/12 02:50:29;;;;;;;16.67;7.77;;;;;;;;;;4935052;29;20203;-62
2023/01/12 02:52:58;;;;;;;21.10;11.07;;;;;;;;;;4934634;29;20234;-62
2023/01/12 02:55:25;;;;;;;22.87;10.37;;;;;;;;;;4935195;29;20206;-62
2023/01/12 02:57:52;;;;;;;20.53;9.63;;;;;;;;;;4933724;29;20302;-62
2023/01/12 03:00:18;;;;;;;21.80;9.93;;;;;;;;;;4933820;29;20306;-62
2023/01/12 03:02:45;;;;;;;20.03;10.17;;;;;;;;;;4934691;29;20209;-62
2023/01/12 03:05:12;;;;;;;16.33;8.80;;;;;;;;;;4933757;29;20343;-61
2023/01/12 03:07:49;;;;;;;16.87;7.73;;;;;;;;;;4934904;29;20238;-62
2023/01/12 03:10:19;;;;;;;22.03;9.13;;;;;;;;;;4933900;29;20277;-62
2023/01/12 03:12:46;;;;;;;18.50;8.90;;;;;;;;;;4934536;29;20883;-61
2023/01/12 03:15:13;;;;;;;21.97;8.13;;;;;;;;;;4933480;29;20191;-61
2023/01/12 03:17:58;;;;;;;17.33;8.83;;;;;;;;;;4933491;29;20175;-61
2023/01/12 03:20:27;;;;;;;17.13;7.40;;;;;;;;;;4934502;29;20187;-61
2023/01/12 03:22:59;;;;;;;21.80;10.53;;;;;;;;;;4917409;29;20283;-62
2023/01/12 03:25:26;;;;;;;18.60;9.40;;;;;;;;;;4914522;29;20709;-62
2023/01/12 03:27:53;;;;;;;23.47;11.67;;;;;;;;;;4914198;29;20627;-62
2023/01/12 03:30:24;;;;;;;17.87;7.70;;;;;;;;;;4914279;29;20247;-60
2023/01/12 03:32:51;;;;;;;19.03;8.67;;;;;;;;;;4914214;29;20191;-61
2023/01/12 03:35:17;;;;;;;20.80;8.93;;;;;;;;;;4914068;29;20195;-61
2023/01/12 03:38:04;;;;;;;17.63;8.40;;;;;;;;;;4915452;29;20175;-62
2023/01/12 03:40:36;;;;;;;22.53;10.67;;;;;;;;;;4914211;29;20184;-61
2023/01/12 03:43:21;;;;;;;19.30;9.03;;;;;;;;;;4917404;29;20179;-61
2023/01/12 03:45:48;;;;;;;18.57;10.30;;;;;;;;;;4917109;29;20734;-62
2023/01/12 03:48:15;;;;;;;22.10;8.20;;;;;;;;;;4934205;29;20245;-61
2023/01/12 03:50:46;;;;;;;14.77;9.27;;;;;;;;;;4934150;29;20204;-61
2023/01/12 03:53:14;;;;;;;17.57;6.23;;;;;;;;;;4917214;29;20273;-62
2023/01/12 03:56:02;;;;;;;18.73;9.97;;;;;;;;;;4932816;29;20179;-62
2023/01/12 03:58:30;;;;;;;16.00;7.97;;;;;;;;;;4934276;29;20264;-62
2023/01/12 04:00:56;;;;;;;18.60;8.80;;;;;;;;;;4933892;29;20595;-62
2023/01/12 04:03:23;;;;;;;19.67;8.20;;;;;;;;;;4933880;29;20201;-61
2023/01/12 04:05:50;;;;;;;19.77;6.67;;;;;;;;;;4931915;29;20195;-62
2023/01/12 04:08:16;;;;;;;19.57;8.37;;;;;;;;;;4933812;29;20440;-62
2023/01/12 04:10:43;;;;;;;13.67;5.53;;;;;;;;;;4916535;29;20466;-62
2023/01/12 04:13:10;;;;;;;16.97;7.37;;;;;;;;;;4933964;29;20187;-62
2023/01/12 04:15:41;;;;;;;15.73;7.97;;;;;;;;;;4933565;29;20246;-61
2023/01/12 04:18:08;;;;;;;13.40;7.30;;;;;;;;;;4903920;29;20571;-63
2023/01/12 04:20:35;;;;;;;18.63;7.00;;;;;;;;;;4940930;29;20432;-62
2023/01/12 04:23:02;;;;;;;17.87;7.37;;;;;;;;;;4941210;29;20751;-62
2023/01/12 04:25:28;;;;;;;19.80;7.07;;;;;;;;;;4934256;28;20230;-62
2023/01/12 04:27:59;;;;;;;16.93;6.77;;;;;;;;;;4937688;29;20230;-63
2023/01/12 04:30:44;;;;;;;16.30;7.00;;;;;;;;;;4934162;29;20317;-62
2023/01/12 04:33:10;;;;;;;11.80;6.67;;;;;;;;;;4920581;29;20567;-62
2023/01/12 04:35:55;;;;;;;15.77;6.73;;;;;;;;;;4930915;28;20202;-61
2023/01/12 04:38:21;;;;;;;14.87;7.00;;;;;;;;;;4931247;29;20268;-62
2023/01/12 04:40:52;;;;;;;16.10;7.13;;;;;;;;;;4933835;29;20278;-62
2023/01/12 04:43:19;;;;;;;11.30;5.43;;;;;;;;;;4933010;29;20202;-63
2023/01/12 04:45:46;;;;;;;9.53;5.47;;;;;;;;;;4936224;29;20604;-62
2023/01/12 04:48:13;;;;;;;11.97;5.67;;;;;;;;;;4932183;29;20215;-62
2023/01/12 04:50:40;;;;;;;13.70;6.23;;;;;;;;;;4928883;29;20203;-64
2023/01/12 04:53:25;;;;;;;16.17;6.67;;;;;;;;;;4937159;28;20186;-62
2023/01/12 04:55:51;;;;;;;11.23;4.93;;;;;;;;;;4929772;29;20183;-63
2023/01/12 04:58:18;;;;;;;10.20;5.43;;;;;;;;;;4929510;29;20206;-62
2023/01/12 05:00:45;;;;;;;12.87;5.97;;;;;;;;;;4932943;28;20186;-62
2023/01/12 05:03:12;;;;;;;13.37;6.50;;;;;;;;;;4932662;29;20605;-64
2023/01/12 05:05:38;;;;;;;11.13;5.33;;;;;;;;;;4935179;29;20198;-63
2023/01/12 05:10:54;;;;;;;17.30;6.13;;;;;;;;;;4932525;29;20202;-62
2023/01/12 05:13:21;;;;;;;12.00;6.93;;;;;;;;;;4936889;29;20234;-62
2023/01/12 05:15:47;;;;;;;6.60;3.90;;;;;;;;;;4938607;28;20203;-62
2023/01/12 05:18:14;;;;;;;17.83;6.87;;;;;;;;;;4920207;29;20231;-62
2023/01/12 05:20:41;;;;;;;13.40;5.87;;;;;;;;;;4933882;29;20190;-61
2023/01/12 05:23:07;;;;;;;18.20;5.60;;;;;;;;;;4900794;29;20288;-63
2023/01/12 05:25:34;;;;;;;10.30;5.40;;;;;;;;;;4936151;28;20662;-62
2023/01/12 05:28:01;;;;;;;15.43;6.10;;;;;;;;;;4928276;29;20839;-60
2023/01/12 05:30:27;;;;;;;17.27;6.90;;;;;;;;;;4935090;29;20187;-62
2023/01/12 05:33:15;;;;;;;17.73;6.53;;;;;;;;;;4929458;28;20198;-61
2023/01/12 05:35:42;;;;;;;12.90;4.10;;;;;;;;;;4940292;28;20197;-61
2023/01/12 05:38:08;;;;;;;16.20;5.43;;;;;;;;;;4934296;29;20203;-63
2023/01/12 05:40:35;;;;;;;15.93;6.80;;;;;;;;;;4928442;29;20226;-61
2023/01/12 05:45:47;;;;;;;15.30;6.83;;;;;;;;;;4932742;29;20195;-62
2023/01/12 05:48:14;;;;;;;16.57;6.93;;;;;;;;;;4932008;29;20234;-67
2023/01/12 05:50:40;;;;;;;18.07;7.73;;;;;;;;;;4927580;29;20205;-63
2023/01/12 05:53:07;;;;;;;15.90;7.90;;;;;;;;;;4906931;29;20194;-63
2023/01/12 05:55:35;;;;;;;14.07;7.57;;;;;;;;;;4930688;29;20305;-63
2023/01/12 05:58:02;;;;;;;17.30;8.40;;;;;;;;;;4931307;29;20556;-63
2023/01/12 06:00:28;;;;;;;13.60;7.80;;;;;;;;;;4930810;29;20664;-63
2023/01/12 06:02:55;;;;;;;17.10;7.53;;;;;;;;;;4931642;29;20218;-62
2023/01/12 06:05:21;;;;;;;16.63;7.47;;;;;;;;;;4931009;29;20237;-62
2023/01/12 06:08:05;;;;;;;13.93;7.07;;;;;;;;;;4915989;29;20178;-62
2023/01/12 06:10:33;;;;;;;8.33;3.47;;;;;;;;;;4931061;29;20439;-62
2023/01/12 06:15:45;;;;;;;14.00;6.00;;;;;;;;;;4934002;29;20183;-63
2023/01/12 06:18:16;;;;;;;15.73;6.93;;;;;;;;;;4931472;29;20195;-62
2023/01/12 06:20:42;;;;;;;14.83;7.53;;;;;;;;;;4930622;29;20975;-62
2023/01/12 06:23:09;;;;;;;13.90;6.80;;;;;;;;;;4931139;29;20247;-62
2023/01/12 06:25:36;;;;;;;14.70;7.10;;;;;;;;;;4928674;29;20199;-62
2023/01/12 06:28:04;;;;;;;15.33;6.33;;;;;;;;;;4931660;29;20293;-62
2023/01/12 06:30:30;;;;;;;14.43;6.23;;;;;;;;;;4915944;29;20598;-63
2023/01/12 06:33:00;;;;;;;11.67;6.00;;;;;;;;;;4935931;29;20916;-62
2023/01/12 06:35:26;;;;;;;19.13;7.00;;;;;;;;;;4934634;29;20293;-62
2023/01/12 06:37:56;;;;;;;9.97;3.97;;;;;;;;;;4931110;29;21445;-62
2023/01/12 06:40:23;;;;;;;13.30;6.17;;;;;;;;;;4930725;29;20313;-62
2023/01/12 06:42:50;;;;;;;30.80;7.03;;;;;;;;;;4935064;29;20191;-62
2023/01/12 06:45:16;;;;;;;14.40;7.00;;;;;;;;;;4913509;29;20207;-63
2023/01/12 06:47:44;;;;;;;8.17;4.63;;;;;;;;;;4932764;29;21435;-62
2023/01/12 06:50:12;;;;;;;14.57;7.10;;;;;;;;;;4934103;29;20265;-63
2023/01/12 06:52:38;;;;;;;9.80;3.73;;;;;;;;;;4924498;29;20226;-52
2023/01/12 06:55:05;;;;;;;11.17;6.40;;;;;;;;;;4914777;29;20551;-53
2023/01/12 06:57:31;;;;;;;11.87;6.70;;;;;;;;;;4939193;29;20203;-62
2023/01/12 06:59:58;;;;;;;17.27;6.37;;;;;;;;;;4930693;29;20210;-62
2023/01/12 07:02:42;;;;;;;17.60;7.17;;;;;;;;;;4914951;29;20205;-62
2023/01/12 07:05:09;;;;;;;17.57;7.47;;;;;;;;;;4933208;29;20228;-61
2023/01/12 07:07:57;;;;;;;15.73;6.67;;;;;;;;;;4935260;29;20222;-63
2023/01/12 07:10:24;;;;;;;22.30;8.50;;;;;;;;;;4941929;29;20662;-62
2023/01/12 07:12:51;;;;;;;13.90;8.27;;;;;;;;;;4931142;29;20219;-62
2023/01/12 07:15:18;;;;;;;17.07;7.83;;;;;;;;;;4937472;28;20206;-61
2023/01/12 07:17:44;;;;;;;12.50;5.93;;;;;;;;;;4930082;29;20194;-61
2023/01/12 07:20:11;;;;;;;11.27;4.97;;;;;;;;;;4932047;29;20244;-62
2023/01/12 07:22:38;;;;;;;10.03;5.13;;;;;;;;;;4929321;29;20631;-62
2023/01/12 07:25:05;;;;;;;13.50;7.07;;;;;;;;;;4930273;29;20186;-60
2023/01/12 07:27:32;;;;;;;16.73;8.83;;;;;;;;;;4925073;29;20249;-63
2023/01/12 07:29:59;;;;;;;14.47;7.77;;;;;;;;;;4941826;29;20190;-63
2023/01/12 07:32:26;;;;;;;11.20;6.37;;;;;;;;;;4934573;29;20301;-61
2023/01/12 07:35:10;;;;;;;10.63;4.57;;;;;;;;;;4934934;29;20223;-63
2023/01/12 07:37:37;;;;;;;7.00;3.93;;;;;;;;;;4931188;29;20234;-63
2023/01/12 07:40:04;;;;;;;12.40;5.10;;;;;;;;;;4931918;29;20281;-63
2023/01/12 07:42:32;;;;;;;5.43;3.10;;;;;;;;;;4931556;29;20198;-64
2023/01/12 07:45:00;;;;;;;13.77;5.77;;;;;;;;;;4929319;29;20514;-63
2023/01/12 07:47:27;;;;;;;14.87;6.83;;;;;;;;;;4931683;29;20203;-63
2023/01/12 07:49:54;;;;;;;12.17;5.23;;;;;;;;;;4933837;29;20581;-63
2023/01/12 07:52:21;;;;;;;5.20;3.17;;;;;;;;;;4935151;29;20580;-63
2023/01/12 07:55:05;;;;;;;10.47;5.20;;;;;;;;;;4927716;29;20325;-60
2023/01/12 07:57:33;;;;;;;9.37;5.00;;;;;;;;;;4933392;29;20197;-62
2023/01/12 07:59:59;;;;;;;6.07;2.67;;;;;;;;;;4930245;29;20266;-62
2023/01/12 08:02:26;;;;;;;6.70;4.37;;;;;;;;;;4932432;29;20194;-62
2023/01/12 08:04:53;;;;;;;13.40;3.93;;;;;;;;;;4930331;29;20207;-62
2023/01/12 08:07:38;;;;;;;13.67;4.67;;;;;;;;;;4935861;29;20198;-61
2023/01/12 08:10:05;;;;;;;11.83;3.30;;;;;;;;;;4931649;29;20686;-62
2023/01/12 08:12:50;;;;;;;6.23;3.60;;;;;;;;;;4934044;29;20211;-62
2023/01/12 08:15:17;;;;;;;6.87;3.00;;;;;;;;;;4934487;29;20249;-62
2023/01/12 08:18:05;;;;;;;14.10;5.27;;;;;;;;;;4931907;29;20182;-61
2023/01/12 08:20:33;;;;;;;8.77;4.20;;;;;;;;;;4929186;29;20285;-62
2023/01/12 08:23:10;;;;;;;10.00;4.40;;;;;;;;;;4917793;29;20201;-62
2023/01/12 08:25:43;;;;;;;11.13;3.87;;;;;;;;;;4925696;29;20199;-62
2023/01/12 08:28:11;;;;;;;11.20;3.80;;;;;;;;;;4925561;29;20241;-62
2023/01/12 08:30:38;;;;;;;9.33;4.03;;;;;;;;;;4907462;29;20818;-62
2023/01/12 08:33:05;;;;;;;12.93;4.77;;;;;;;;;;4927832;29;20199;-63
2023/01/12 08:35:32;;;;;;;6.70;3.70;;;;;;;;;;4918766;29;20222;-62
2023/01/12 08:37:59;;;;;;;7.07;3.57;;;;;;;;;;4920673;29;20202;-61
2023/01/12 08:41:31;;;;;;;5.53;2.67;;;;;;;;;;4923032;29;20183;-61
2023/01/12 08:43:12;;;;;;;8.80;2.67;;;;;;;;;;4939468;28;20329;-61
2023/01/12 08:45:39;;;;;;;7.70;3.40;;;;;;;;;;4932896;29;20198;-64
2023/01/12 08:48:06;;;;;;;10.00;3.43;;;;;;;;;;4940650;29;20203;-60
2023/01/12 08:50:50;;;;;;;3.83;2.37;;;;;;;;;;4938252;29;20682;-60
2023/01/12 08:53:17;;;;;;;9.10;3.40;;;;;;;;;;4939618;29;20241;-59
2023/01/12 08:55:43;;;;;;;8.97;3.80;;;;;;;;;;4930396;29;20290;-61
2023/01/12 08:58:10;;;;;;;9.40;4.57;;;;;;;;;;4918721;29;20195;-61
2023/01/12 09:00:37;;;;;;;9.80;4.90;;;;;;;;;;4933318;29;20197;-60
2023/01/12 09:03:03;;;;;;;5.00;2.40;;;;;;;;;;4930231;29;20205;-61
2023/01/12 09:05:30;;;;;;;5.97;3.33;;;;;;;;;;4933493;29;20191;-61
2023/01/12 09:07:57;;;;;;;12.03;3.83;;;;;;;;;;4926433;29;20221;-62
2023/01/12 09:10:24;;;;;;;4.80;2.50;;;;;;;;;;4926637;29;20199;-61
2023/01/12 09:12:51;;;;;;;7.20;3.50;;;;;;;;;;4915141;29;20237;-62
2023/01/12 09:15:18;;;;;;;7.10;2.90;;;;;;;;;;4928072;29;20983;-62
2023/01/12 09:17:44;;;;;;;5.33;2.23;;;;;;;;;;4928810;29;20198;-60
2023/01/12 09:20:11;;;;;;;6.97;2.77;;;;;;;;;;4932053;29;20195;-60
2023/01/12 09:22:38;;;;;;;9.40;3.40;;;;;;;;;;4928761;29;20187;-61
2023/01/12 09:25:05;;;;;;;6.70;2.57;;;;;;;;;;4933349;29;20194;-60
2023/01/12 09:27:32;;;;;;;5.10;1.80;;;;;;;;;;4931878;29;20218;-61
2023/01/12 09:29:59;;;;;;;7.10;2.80;;;;;;;;;;4934627;29;20261;-60
2023/01/12 09:32:44;;;;;;;4.17;2.20;;;;;;;;;;4929630;29;20233;-61
2023/01/12 09:35:10;;;;;;;4.80;2.60;;;;;;;;;;4938566;29;20194;-60
2023/01/12 09:37:39;;;;;;;10.00;3.33;;;;;;;;;;4932016;29;20198;-61
2023/01/12 09:40:06;;;;;;;6.97;3.07;;;;;;;;;;4929184;29;20190;-61
2023/01/12 09:48:23;;;;;;;6.03;2.33;;;;;;;;;;4926221;29;20182;-61
2023/01/12 09:50:56;;;;;;;13.23;4.37;;;;;;;;;;4927335;29;20191;-62
2023/01/12 09:53:24;;;;;;;5.90;2.80;;;;;;;;;;4923114;29;20823;-63
2023/01/12 09:55:53;;;;;;;5.40;3.27;;;;;;;;;;4911270;29;20195;-62
2023/01/12 09:58:23;;;;;;;12.93;4.60;;;;;;;;;;4937356;29;20245;-61
2023/01/12 10:00:53;;;;;;;9.00;3.43;;;;;;;;;;4939758;29;20683;-62
2023/01/12 10:03:40;;;;;;;4.60;2.50;;;;;;;;;;4905857;29;20186;-62
2023/01/12 10:06:12;;;;;;;5.77;2.77;;;;;;;;;;4932241;29;20195;-62
2023/01/12 10:08:58;;;;;;;9.80;4.50;;;;;;;;;;4917701;29;20182;-62
2023/01/12 10:11:34;;;;;;;10.93;4.17;;;;;;;;;;4933923;29;20254;-64
2023/01/12 10:14:01;;;;;;;9.83;3.60;;;;;;;;;;4933841;29;20313;-61
2023/01/12 10:16:46;;;;;;;5.47;2.47;;;;;;;;;;4943560;29;20403;-62
2023/01/12 10:19:32;;;;;;;10.47;3.37;;;;;;;;;;4942369;29;20195;-64
2023/01/12 10:21:59;;;;;;;10.10;2.90;;;;;;;;;;4933436;29;20250;-61
2023/01/12 10:24:27;;;;;;;8.10;3.90;;;;;;;;;;4926626;29;20191;-62
2023/01/12 10:27:00;;;;;;;7.77;3.70;;;;;;;;;;4934798;29;20254;-62
2023/01/12 10:29:27;;;;;;;4.57;2.90;;;;;;;;;;4902879;29;20959;-64
2023/01/12 10:31:54;;;;;;;11.43;3.60;;;;;;;;;;4914001;29;20713;-62
2023/01/12 10:34:21;;;;;;;9.90;3.57;;;;;;;;;;4930693;29;20187;-62
2023/01/12 10:36:48;;;;;;;12.73;3.93;;;;;;;;;;4930461;29;20217;-63
2023/01/12 10:39:43;;;;;;;5.37;2.30;;;;;;;;;;4925143;29;20248;-62
2023/01/12 10:45:16;;;;;;;3.73;2.07;;;;;;;;;;4926524;29;20627;-61
2023/01/12 10:47:43;;;;;;;8.00;3.20;;;;;;;;;;4928823;29;20236;-60
2023/01/12 10:50:30;;;;;;;5.97;3.03;;;;;;;;;;4931349;29;20324;-61
2023/01/12 10:53:04;;;;;;;4.27;2.27;;;;;;;;;;4931489;29;20227;-60
2023/01/12 10:55:32;;;;;;;5.60;2.73;;;;;;;;;;4919397;29;20226;-61
2023/01/12 10:57:59;;;;;;;8.80;3.87;;;;;;;;;;4920028;29;20223;-61
2023/01/12 11:00:26;;;;;;;8.97;3.47;;;;;;;;;;4930943;29;20213;-63
2023/01/12 11:02:53;;;;;;;11.07;4.30;;;;;;;;;;4926703;29;20306;-62
2023/01/12 11:05:29;;;;;;;9.13;3.30;;;;;;;;;;4928900;29;20203;-62
2023/01/12 11:07:56;;;;;;;9.43;3.50;;;;;;;;;;4935808;29;20194;-63
2023/01/12 11:10:27;;;;;;;2.43;1.97;;;;;;;;;;4931278;29;20223;-62
2023/01/12 11:13:02;;;;;;;8.17;3.83;;;;;;;;;;4927626;29;20246;-61
2023/01/12 11:15:59;;;;;;;4.80;3.30;;;;;;;;;;4929300;29;20186;-61
2023/01/12 11:18:36;;;;;;;9.67;3.30;;;;;;;;;;4915451;29;20281;-61
2023/01/12 11:21:07;;;;;;;8.33;3.67;;;;;;;;;;4913482;29;20704;-62
2023/01/12 11:23:34;;;;;;;4.97;2.37;;;;;;;;;;4908583;29;20195;-62
2023/01/12 11:26:01;;;;;;;7.70;2.67;;;;;;;;;;4929650;29;20298;-63
2023/01/12 11:28:28;;;;;;;8.00;3.50;;;;;;;;;;4863417;29;1325231;-63
2023/01/12 11:30:54;;;;;;;11.83;4.00;;;;;;;;;;4912469;29;20205;-62
2023/01/12 11:33:22;;;;;;;9.77;3.07;;;;;;;;;;4914149;29;20227;-63
2023/01/12 11:36:07;;;;;;;6.87;3.10;;;;;;;;;;4910780;29;20200;-64
2023/01/12 11:38:35;;;;;;;10.97;4.03;;;;;;;;;;4912399;29;20564;-63
2023/01/12 11:41:03;;;;;;;8.30;3.73;;;;;;;;;;4909753;29;20192;-64
2023/01/12 11:43:51;;;;;;;9.87;4.60;;;;;;;;;;4908292;29;20199;-63
2023/01/12 11:46:21;;;;;;;12.63;4.07;;;;;;;;;;4896687;29;20196;-62
2023/01/12 11:49:02;;;;;;;6.73;2.97;;;;;;;;;;4912515;29;20191;-63
2023/01/12 11:51:29;;;;;;;7.90;4.43;;;;;;;;;;4911373;29;20265;-65
2023/01/12 11:53:56;;;;;;;7.97;3.13;;;;;;;;;;4891221;29;20219;-64
2023/01/12 11:56:42;;;;;;;6.53;3.10;;;;;;;;;;4910520;29;20742;-62
2023/01/12 11:59:11;;;;;;;8.43;3.07;;;;;;;;;;4917107;29;20217;-65
2023/01/12 12:01:50;;;;;;;12.33;2.93;;;;;;;;;;4909332;29;20199;-63
2023/01/12 12:04:26;;;;;;;11.53;3.57;;;;;;;;;;4911545;29;20191;-63
2023/01/12 12:07:00;;;;;;;9.33;3.33;;;;;;;;;;4911675;29;20261;-64
2023/01/12 12:09:45;;;;;;;5.20;2.53;;;;;;;;;;4914577;29;20203;-63
2023/01/12 12:12:24;;;;;;;7.00;3.23;;;;;;;;;;4913826;29;20223;-67
2023/01/12 12:15:02;;;;;;;10.13;3.70;;;;;;;;;;4911591;29;20202;-64
2023/01/12 12:17:32;;;;;;;8.13;3.43;;;;;;;;;;4921397;29;20305;-66
2023/01/12 12:20:02;;;;;;;8.10;3.37;;;;;;;;;;4905735;29;20270;-64
2023/01/12 12:22:48;;;;;;;8.37;3.20;;;;;;;;;;4922562;29;20195;-64
2023/01/12 12:25:20;;;;;;;9.43;3.60;;;;;;;;;;4911423;29;20208;-64
2023/01/12 12:28:05;;;;;;;5.50;2.07;;;;;;;;;;4920749;29;20226;-62
2023/01/12 12:30:32;;;;;;;7.83;2.90;;;;;;;;;;4925840;29;20227;-63
2023/01/12 12:33:05;;;;;;;6.43;2.80;;;;;;;;;;4919735;28;20238;-64
2023/01/12 12:35:32;;;;;;;3.90;1.43;;;;;;;;;;4928660;29;20203;-62
2023/01/12 12:38:02;;;;;;;10.80;2.13;;;;;;;;;;4937113;28;20824;-63
2023/01/12 12:46:23;;;;;;;8.43;2.80;;;;;;;;;;4930927;29;20190;-63
2023/01/12 12:49:08;;;;;;;6.03;2.97;;;;;;;;;;4921411;29;20186;-65
2023/01/12 12:51:35;;;;;;;6.07;2.77;;;;;;;;;;4916345;29;20201;-64
2023/01/12 12:54:02;;;;;;;10.03;2.80;;;;;;;;;;4914906;29;20321;-64
2023/01/12 12:56:31;;;;;;;6.80;2.60;;;;;;;;;;4934938;29;20202;-63
2023/01/12 12:58:58;;;;;;;6.77;2.90;;;;;;;;;;4938412;28;20194;-64
2023/01/12 13:01:25;;;;;;;6.23;2.47;;;;;;;;;;4930131;29;20626;-64
2023/01/12 13:03:53;;;;;;;8.30;3.20;;;;;;;;;;4931155;29;20286;-66
2023/01/12 13:06:27;;;;;;;7.80;1.90;;;;;;;;;;4919430;29;20197;-63
2023/01/12 13:08:55;;;;;;;4.33;2.57;;;;;;;;;;4931084;29;20195;-65
2023/01/12 13:11:40;;;;;;;10.67;2.60;;;;;;;;;;4912921;29;20253;-66
2023/01/12 13:14:25;;;;;;;7.90;3.17;;;;;;;;;;4929654;29;20222;-64
2023/01/12 13:17:07;;;;;;;4.63;2.30;;;;;;;;;;4927873;29;20209;-64
2023/01/12 13:19:36;;;;;;;8.23;3.10;;;;;;;;;;4929235;28;20205;-64
2023/01/12 13:22:21;;;;;;;12.07;3.80;;;;;;;;;;4914096;29;20229;-65
2023/01/12 13:25:08;;;;;;;9.23;3.27;;;;;;;;;;4926876;29;20196;-64
2023/01/12 13:27:48;;;;;;;6.80;2.13;;;;;;;;;;4930397;29;20296;-63
2023/01/12 13:30:34;;;;;;;10.90;3.03;;;;;;;;;;4933600;28;20181;-65
2023/01/12 13:33:15;;;;;;;7.80;3.57;;;;;;;;;;4929448;29;20210;-63
2023/01/12 13:35:45;;;;;;;8.77;3.13;;;;;;;;;;4931880;29;20199;-63
2023/01/12 13:38:14;;;;;;;5.43;2.13;;;;;;;;;;4931071;29;20191;-63
2023/01/12 13:40:41;;;;;;;4.80;2.60;;;;;;;;;;4932281;29;20219;-65
2023/01/12 13:43:22;;;;;;;6.60;2.77;;;;;;;;;;4926666;29;20242;-63
2023/01/12 13:45:56;;;;;;;8.23;2.83;;;;;;;;;;4931755;29;20273;-64
2023/01/12 13:48:23;;;;;;;4.47;2.07;;;;;;;;;;4938505;29;20212;-63
2023/01/12 13:50:50;;;;;;;5.07;2.67;;;;;;;;;;4934633;29;20714;-63
2023/01/12 13:53:22;;;;;;;7.60;3.07;;;;;;;;;;4913295;29;20702;-65
2023/01/12 13:55:58;;;;;;;9.20;3.30;;;;;;;;;;4931227;29;20233;-63
2023/01/12 13:58:26;;;;;;;6.73;2.87;;;;;;;;;;4943085;28;20197;-63
2023/01/12 14:00:57;;;;;;;7.87;3.00;;;;;;;;;;4918800;29;20190;-63
2023/01/12 14:03:42;;;;;;;5.83;2.20;;;;;;;;;;4931581;29;20202;-63
2023/01/12 14:06:12;;;;;;;5.90;2.43;;;;;;;;;;4933083;29;20210;-63
2023/01/12 14:08:59;;;;;;;9.80;2.87;;;;;;;;;;4922501;29;20223;-64
2023/01/12 14:11:26;;;;;;;11.63;2.93;;;;;;;;;;4912886;29;20210;-63
2023/01/12 14:17:47;;;;;;;8.40;2.63;;;;;;;;;;4924317;29;20219;-63
2023/01/12 14:19:48;;;;;;;10.20;3.20;;;;;;;;;;4885398;29;20590;-65
2023/01/12 14:22:16;;;;;;;6.17;2.30;;;;;;;;;;4914751;29;20192;-64
2023/01/12 14:24:43;;;;;;;6.10;2.37;;;;;;;;;;4925430;29;20207;-64
2023/01/12 14:27:14;;;;;;;9.27;2.60;;;;;;;;;;4929813;29;20274;-63
2023/01/12 14:29:41;;;;;;;9.03;2.80;;;;;;;;;;4929954;29;20203;-63
2023/01/12 14:32:09;;;;;;;7.27;3.20;;;;;;;;;;4931422;29;20231;-63
2023/01/12 14:34:36;;;;;;;7.60;2.77;;;;;;;;;;4913786;29;20286;-63
2023/01/12 14:37:03;;;;;;;11.70;3.40;;;;;;;;;;4930223;29;20186;-64
2023/01/12 14:39:35;;;;;;;7.67;3.20;;;;;;;;;;4929633;29;20187;-64
2023/01/12 14:47:34;;;;;;;9.17;3.30;;;;;;;;;;4934232;29;20223;-63
2023/01/12 14:50:13;;;;;;;10.47;3.43;;;;;;;;;;4922854;29;20266;-63
2023/01/12 14:52:45;;;;;;;3.87;1.97;;;;;;;;;;4943571;28;20202;-64
2023/01/12 14:55:25;;;;;;;8.60;2.80;;;;;;;;;;4948234;29;20684;-64
2023/01/12 14:57:53;;;;;;;11.33;3.57;;;;;;;;;;4942409;29;20195;-64
2023/01/12 15:00:22;;;;;;;8.57;2.53;;;;;;;;;;4933110;29;20278;-63
2023/01/12 15:02:50;;;;;;;7.37;3.67;;;;;;;;;;4942905;29;20578;-64
2023/01/12 15:05:21;;;;;;;7.13;3.37;;;;;;;;;;4933623;29;20199;-65
2023/01/12 15:07:57;;;;;;;5.73;2.50;;;;;;;;;;4933529;29;20199;-64
2023/01/12 15:10:24;;;;;;;6.73;2.20;;;;;;;;;;4933795;29;20218;-63
2023/01/12 15:12:52;;;;;;;5.90;2.30;;;;;;;;;;4940549;28;20206;-64
2023/01/12 15:25:34;;;;;;;7.47;2.50;;;;;;;;;;4928877;29;20223;-63
2023/01/12 15:26:35;;;;;;;6.07;2.20;;;;;;;;;;4928478;29;20242;-63
2023/01/12 15:29:19;;;;;;;8.73;2.70;;;;;;;;;;4947622;29;20175;-63
2023/01/12 15:31:46;;;;;;;1.93;1.30;;;;;;;;;;4951776;28;20225;-63
2023/01/12 15:34:15;;;;;;;9.43;3.33;;;;;;;;;;4947999;28;20223;-64
2023/01/12 15:36:42;;;;;;;7.23;2.43;;;;;;;;;;4951137;29;20202;-63
2023/01/12 15:39:11;;;;;;;11.90;2.77;;;;;;;;;;4938544;29;20655;-63
2023/01/12 15:44:41;;;;;;;8.60;2.47;;;;;;;;;;4932945;28;20195;-63
2023/01/12 15:47:10;;;;;;;6.47;1.90;;;;;;;;;;4917214;29;20195;-63
2023/01/12 15:49:37;;;;;;;6.07;2.30;;;;;;;;;;4931272;29;20202;-63
2023/01/12 15:52:04;;;;;;;5.67;1.33;;;;;;;;;;4924982;29;20219;-64
2023/01/12 15:54:31;;;;;;;5.77;2.20;;;;;;;;;;4937681;28;20634;-63
2023/01/12 15:56:58;;;;;;;5.70;2.80;;;;;;;;;;4938335;29;20269;-64
2023/01/12 15:59:25;;;;;;;6.57;1.67;;;;;;;;;;4942818;28;20670;-63
2023/01/12 16:01:52;;;;;;;5.60;2.10;;;;;;;;;;4934896;28;21051;-63
2023/01/12 16:04:21;;;;;;;4.23;2.10;;;;;;;;;;4936809;29;20225;-63
2023/01/12 16:07:07;;;;;;;7.30;1.63;;;;;;;;;;4943320;29;20277;-63
2023/01/12 16:09:53;;;;;;;8.57;2.13;;;;;;;;;;4945401;29;20538;-63
2023/01/12 16:12:21;;;;;;;6.00;2.03;;;;;;;;;;4939021;29;20563;-63
2023/01/12 16:14:48;;;;;;;6.67;2.10;;;;;;;;;;4932284;29;20698;-63
2023/01/12 16:17:14;;;;;;;6.20;1.87;;;;;;;;;;4936979;29;20222;-63
2023/01/12 16:19:41;;;;;;;6.30;2.83;;;;;;;;;;4936882;29;20959;-63